sensor_id;sensor_type;location;lat;lon;timestamp;P1;durP1;ratioP1;P2;durP2;ratioP2
53925;SDS011;39836;52.754;6.866;2022-08-05T00:00:16;12.95;;;4.63;;
53925;SDS011;39836;52.754;6.866;2022-08-05T00:02:45;10.00;;;5.05;;
53925;SDS011;39836;52.754;6.866;2022-08-05T00:05:12;11.52;;;5.45;;
53925;SDS011;39836;52.754;6.866;2022-08-05T00:07:40;11.57;;;5.10;;
53925;SDS011;39836;52.754;6.866;2022-08-05T00:10:06;10.82;;;4.65;;
53925;SDS011;39836;52.754;6.866;2022-08-05T00:12:32;9.82;;;5.38;;
53925;SDS011;39836;52.754;6.866;2022-08-05T00:14:58;11.68;;;5.28;;
53925;SDS011;39836;52.754;6.866;2022-08-05T00:17:27;16.23;;;6.63;;
53925;SDS011;39836;52.754;6.866;2022-08-05T00:19:56;13.73;;;5.35;;
53925;SDS011;39836;52.754;6.866;2022-08-05T00:22:22;12.20;;;5.40;;
53925;SDS011;39836;52.754;6.866;2022-08-05T00:24:48;11.75;;;5.78;;
53925;SDS011;39836;52.754;6.866;2022-08-05T00:27:14;12.70;;;5.85;;
53925;SDS011;39836;52.754;6.866;2022-08-05T00:29:39;11.35;;;5.53;;
53925;SDS011;39836;52.754;6.866;2022-08-05T00:32:05;13.63;;;6.78;;
53925;SDS011;39836;52.754;6.866;2022-08-05T00:34:33;14.38;;;6.47;;
53925;SDS011;39836;52.754;6.866;2022-08-05T00:36:59;13.15;;;6.13;;
53925;SDS011;39836;52.754;6.866;2022-08-05T00:39:25;16.08;;;6.53;;
53925;SDS011;39836;52.754;6.866;2022-08-05T00:41:51;15.27;;;6.78;;
53925;SDS011;39836;52.754;6.866;2022-08-05T00:44:16;13.52;;;6.55;;
53925;SDS011;39836;52.754;6.866;2022-08-05T00:46:42;13.75;;;7.13;;
53925;SDS011;39836;52.754;6.866;2022-08-05T00:49:08;13.98;;;6.93;;
53925;SDS011;39836;52.754;6.866;2022-08-05T00:51:55;12.07;;;6.28;;
53925;SDS011;39836;52.754;6.866;2022-08-05T00:54:20;11.65;;;6.40;;
53925;SDS011;39836;52.754;6.866;2022-08-05T00:56:49;14.93;;;6.95;;
53925;SDS011;39836;52.754;6.866;2022-08-05T00:59:14;15.18;;;6.43;;
53925;SDS011;39836;52.754;6.866;2022-08-05T01:01:40;11.40;;;5.68;;
53925;SDS011;39836;52.754;6.866;2022-08-05T01:04:07;14.38;;;7.22;;
53925;SDS011;39836;52.754;6.866;2022-08-05T01:06:33;13.82;;;6.72;;
53925;SDS011;39836;52.754;6.866;2022-08-05T01:09:03;18.00;;;7.72;;
53925;SDS011;39836;52.754;6.866;2022-08-05T01:11:31;14.00;;;6.32;;
53925;SDS011;39836;52.754;6.866;2022-08-05T01:14:04;12.15;;;6.35;;
53925;SDS011;39836;52.754;6.866;2022-08-05T01:16:39;11.52;;;5.63;;
53925;SDS011;39836;52.754;6.866;2022-08-05T01:19:33;12.57;;;6.43;;
53925;SDS011;39836;52.754;6.866;2022-08-05T01:24:44;13.32;;;6.57;;
53925;SDS011;39836;52.754;6.866;2022-08-05T01:30:05;10.82;;;6.03;;
53925;SDS011;39836;52.754;6.866;2022-08-05T01:32:32;12.93;;;6.50;;
53925;SDS011;39836;52.754;6.866;2022-08-05T01:35:02;15.23;;;7.85;;
53925;SDS011;39836;52.754;6.866;2022-08-05T01:38:11;12.05;;;7.10;;
53925;SDS011;39836;52.754;6.866;2022-08-05T01:40:31;13.70;;;7.63;;
53925;SDS011;39836;52.754;6.866;2022-08-05T01:42:58;18.75;;;8.38;;
53925;SDS011;39836;52.754;6.866;2022-08-05T01:45:26;14.50;;;7.43;;
53925;SDS011;39836;52.754;6.866;2022-08-05T01:47:56;13.35;;;7.72;;
53925;SDS011;39836;52.754;6.866;2022-08-05T01:50:36;13.57;;;7.55;;
53925;SDS011;39836;52.754;6.866;2022-08-05T01:53:05;13.88;;;7.15;;
53925;SDS011;39836;52.754;6.866;2022-08-05T01:55:33;13.90;;;6.88;;
53925;SDS011;39836;52.754;6.866;2022-08-05T01:58:01;14.25;;;7.78;;
53925;SDS011;39836;52.754;6.866;2022-08-05T02:00:30;15.27;;;7.53;;
53925;SDS011;39836;52.754;6.866;2022-08-05T02:03:00;13.63;;;7.53;;
53925;SDS011;39836;52.754;6.866;2022-08-05T02:05:32;14.02;;;8.50;;
53925;SDS011;39836;52.754;6.866;2022-08-05T02:08:00;13.07;;;7.93;;
53925;SDS011;39836;52.754;6.866;2022-08-05T02:10:28;13.38;;;8.32;;
53925;SDS011;39836;52.754;6.866;2022-08-05T02:13:05;14.45;;;8.80;;
53925;SDS011;39836;52.754;6.866;2022-08-05T02:15:43;12.52;;;7.97;;
53925;SDS011;39836;52.754;6.866;2022-08-05T02:18:30;13.55;;;7.95;;
53925;SDS011;39836;52.754;6.866;2022-08-05T02:21:11;14.10;;;8.63;;
53925;SDS011;39836;52.754;6.866;2022-08-05T02:23:41;15.98;;;8.60;;
53925;SDS011;39836;52.754;6.866;2022-08-05T02:26:15;18.35;;;9.13;;
53925;SDS011;39836;52.754;6.866;2022-08-05T02:28:44;15.15;;;9.32;;
53925;SDS011;39836;52.754;6.866;2022-08-05T02:31:20;13.68;;;8.80;;
53925;SDS011;39836;52.754;6.866;2022-08-05T02:33:56;14.13;;;9.27;;
53925;SDS011;39836;52.754;6.866;2022-08-05T02:36:26;14.90;;;9.27;;
53925;SDS011;39836;52.754;6.866;2022-08-05T02:38:54;16.40;;;9.43;;
53925;SDS011;39836;52.754;6.866;2022-08-05T02:41:21;13.73;;;9.93;;
53925;SDS011;39836;52.754;6.866;2022-08-05T02:43:49;16.40;;;10.25;;
53925;SDS011;39836;52.754;6.866;2022-08-05T02:46:16;18.38;;;10.15;;
53925;SDS011;39836;52.754;6.866;2022-08-05T02:48:44;15.13;;;9.60;;
53925;SDS011;39836;52.754;6.866;2022-08-05T02:51:12;13.68;;;9.32;;
53925;SDS011;39836;52.754;6.866;2022-08-05T02:53:40;17.58;;;8.95;;
53925;SDS011;39836;52.754;6.866;2022-08-05T02:56:10;19.20;;;8.93;;
53925;SDS011;39836;52.754;6.866;2022-08-05T02:58:40;14.98;;;9.80;;
53925;SDS011;39836;52.754;6.866;2022-08-05T03:01:08;15.80;;;9.80;;
53925;SDS011;39836;52.754;6.866;2022-08-05T03:03:41;16.13;;;9.07;;
53925;SDS011;39836;52.754;6.866;2022-08-05T03:06:10;15.88;;;9.77;;
53925;SDS011;39836;52.754;6.866;2022-08-05T03:08:37;19.30;;;9.43;;
53925;SDS011;39836;52.754;6.866;2022-08-05T03:11:04;14.18;;;9.82;;
53925;SDS011;39836;52.754;6.866;2022-08-05T03:13:48;14.80;;;8.70;;
53925;SDS011;39836;52.754;6.866;2022-08-05T03:16:14;15.00;;;9.13;;
53925;SDS011;39836;52.754;6.866;2022-08-05T03:18:40;19.35;;;9.75;;
53925;SDS011;39836;52.754;6.866;2022-08-05T03:21:07;17.02;;;9.45;;
53925;SDS011;39836;52.754;6.866;2022-08-05T03:23:33;15.15;;;10.40;;
53925;SDS011;39836;52.754;6.866;2022-08-05T03:26:00;11.07;;;9.05;;
53925;SDS011;39836;52.754;6.866;2022-08-05T03:28:26;13.35;;;8.63;;
53925;SDS011;39836;52.754;6.866;2022-08-05T03:30:52;14.80;;;9.40;;
53925;SDS011;39836;52.754;6.866;2022-08-05T03:33:18;15.35;;;10.05;;
53925;SDS011;39836;52.754;6.866;2022-08-05T03:35:45;15.50;;;9.90;;
53925;SDS011;39836;52.754;6.866;2022-08-05T03:38:12;15.73;;;9.68;;
53925;SDS011;39836;52.754;6.866;2022-08-05T03:40:39;18.20;;;9.60;;
53925;SDS011;39836;52.754;6.866;2022-08-05T03:43:06;14.63;;;10.27;;
53925;SDS011;39836;52.754;6.866;2022-08-05T03:45:32;16.30;;;9.60;;
53925;SDS011;39836;52.754;6.866;2022-08-05T03:47:57;15.45;;;9.63;;
53925;SDS011;39836;52.754;6.866;2022-08-05T03:50:24;11.63;;;9.00;;
53925;SDS011;39836;52.754;6.866;2022-08-05T03:52:57;15.25;;;9.57;;
53925;SDS011;39836;52.754;6.866;2022-08-05T03:55:32;14.02;;;9.88;;
53925;SDS011;39836;52.754;6.866;2022-08-05T03:58:03;15.63;;;9.80;;
53925;SDS011;39836;52.754;6.866;2022-08-05T04:00:35;15.38;;;9.38;;
53925;SDS011;39836;52.754;6.866;2022-08-05T04:03:02;19.25;;;10.00;;
53925;SDS011;39836;52.754;6.866;2022-08-05T04:05:32;13.82;;;9.48;;
53925;SDS011;39836;52.754;6.866;2022-08-05T04:08:03;12.70;;;9.60;;
53925;SDS011;39836;52.754;6.866;2022-08-05T04:10:32;18.60;;;9.35;;
53925;SDS011;39836;52.754;6.866;2022-08-05T04:12:59;15.07;;;8.95;;
53925;SDS011;39836;52.754;6.866;2022-08-05T04:15:28;15.70;;;9.40;;
53925;SDS011;39836;52.754;6.866;2022-08-05T04:17:54;15.18;;;9.90;;
53925;SDS011;39836;52.754;6.866;2022-08-05T04:20:21;13.32;;;9.77;;
53925;SDS011;39836;52.754;6.866;2022-08-05T04:22:47;14.73;;;9.57;;
53925;SDS011;39836;52.754;6.866;2022-08-05T04:25:16;14.00;;;9.25;;
53925;SDS011;39836;52.754;6.866;2022-08-05T04:27:42;15.13;;;9.68;;
53925;SDS011;39836;52.754;6.866;2022-08-05T04:30:08;18.05;;;10.15;;
53925;SDS011;39836;52.754;6.866;2022-08-05T04:32:34;15.10;;;9.93;;
53925;SDS011;39836;52.754;6.866;2022-08-05T04:35:00;17.77;;;10.43;;
53925;SDS011;39836;52.754;6.866;2022-08-05T04:37:26;17.35;;;9.60;;
53925;SDS011;39836;52.754;6.866;2022-08-05T04:39:52;18.58;;;9.98;;
53925;SDS011;39836;52.754;6.866;2022-08-05T04:42:17;16.27;;;9.90;;
53925;SDS011;39836;52.754;6.866;2022-08-05T04:44:43;13.50;;;9.73;;
53925;SDS011;39836;52.754;6.866;2022-08-05T04:47:09;17.98;;;10.95;;
53925;SDS011;39836;52.754;6.866;2022-08-05T04:49:35;18.80;;;9.98;;
53925;SDS011;39836;52.754;6.866;2022-08-05T04:52:01;16.00;;;9.30;;
53925;SDS011;39836;52.754;6.866;2022-08-05T04:54:27;14.75;;;9.13;;
53925;SDS011;39836;52.754;6.866;2022-08-05T04:56:53;11.05;;;8.68;;
53925;SDS011;39836;52.754;6.866;2022-08-05T04:59:19;16.73;;;9.68;;
53925;SDS011;39836;52.754;6.866;2022-08-05T05:01:50;16.70;;;9.00;;
53925;SDS011;39836;52.754;6.866;2022-08-05T05:04:16;14.68;;;9.82;;
53925;SDS011;39836;52.754;6.866;2022-08-05T05:06:42;16.27;;;9.88;;
53925;SDS011;39836;52.754;6.866;2022-08-05T05:09:09;16.65;;;10.23;;
53925;SDS011;39836;52.754;6.866;2022-08-05T05:11:37;17.05;;;9.45;;
53925;SDS011;39836;52.754;6.866;2022-08-05T05:14:03;21.65;;;10.35;;
53925;SDS011;39836;52.754;6.866;2022-08-05T05:16:29;16.38;;;8.93;;
53925;SDS011;39836;52.754;6.866;2022-08-05T05:18:54;13.93;;;9.10;;
53925;SDS011;39836;52.754;6.866;2022-08-05T05:21:20;15.65;;;8.85;;
53925;SDS011;39836;52.754;6.866;2022-08-05T05:23:46;14.90;;;8.45;;
53925;SDS011;39836;52.754;6.866;2022-08-05T05:26:11;15.52;;;8.23;;
53925;SDS011;39836;52.754;6.866;2022-08-05T05:28:37;16.40;;;8.35;;
53925;SDS011;39836;52.754;6.866;2022-08-05T05:31:03;14.85;;;7.88;;
53925;SDS011;39836;52.754;6.866;2022-08-05T05:33:28;18.60;;;7.85;;
53925;SDS011;39836;52.754;6.866;2022-08-05T05:35:54;15.77;;;7.50;;
53925;SDS011;39836;52.754;6.866;2022-08-05T05:38:19;13.40;;;7.38;;
53925;SDS011;39836;52.754;6.866;2022-08-05T05:40:45;15.10;;;7.35;;
53925;SDS011;39836;52.754;6.866;2022-08-05T05:43:11;17.95;;;6.75;;
53925;SDS011;39836;52.754;6.866;2022-08-05T05:45:36;15.07;;;6.13;;
53925;SDS011;39836;52.754;6.866;2022-08-05T05:48:02;10.18;;;7.05;;
53925;SDS011;39836;52.754;6.866;2022-08-05T05:50:31;11.00;;;6.32;;
53925;SDS011;39836;52.754;6.866;2022-08-05T05:52:58;10.65;;;6.88;;
53925;SDS011;39836;52.754;6.866;2022-08-05T05:55:23;10.57;;;6.53;;
53925;SDS011;39836;52.754;6.866;2022-08-05T05:57:49;10.73;;;6.80;;
53925;SDS011;39836;52.754;6.866;2022-08-05T06:00:16;14.13;;;6.45;;
53925;SDS011;39836;52.754;6.866;2022-08-05T06:02:44;14.48;;;6.55;;
53925;SDS011;39836;52.754;6.866;2022-08-05T06:05:12;15.18;;;6.22;;
53925;SDS011;39836;52.754;6.866;2022-08-05T06:07:39;11.55;;;6.07;;
53925;SDS011;39836;52.754;6.866;2022-08-05T06:10:06;11.32;;;6.70;;
53925;SDS011;39836;52.754;6.866;2022-08-05T06:12:34;13.35;;;6.53;;
53925;SDS011;39836;52.754;6.866;2022-08-05T06:15:01;13.00;;;6.13;;
53925;SDS011;39836;52.754;6.866;2022-08-05T06:17:28;13.80;;;6.55;;
53925;SDS011;39836;52.754;6.866;2022-08-05T06:19:53;11.57;;;6.47;;
53925;SDS011;39836;52.754;6.866;2022-08-05T06:22:23;10.63;;;6.15;;
53925;SDS011;39836;52.754;6.866;2022-08-05T06:24:50;13.52;;;6.30;;
53925;SDS011;39836;52.754;6.866;2022-08-05T06:27:16;10.63;;;6.45;;
53925;SDS011;39836;52.754;6.866;2022-08-05T06:29:42;9.35;;;5.82;;
53925;SDS011;39836;52.754;6.866;2022-08-05T06:32:08;10.13;;;6.32;;
53925;SDS011;39836;52.754;6.866;2022-08-05T06:34:34;15.07;;;6.57;;
53925;SDS011;39836;52.754;6.866;2022-08-05T06:37:00;14.60;;;6.43;;
53925;SDS011;39836;52.754;6.866;2022-08-05T06:39:26;10.80;;;6.00;;
53925;SDS011;39836;52.754;6.866;2022-08-05T06:41:52;11.10;;;6.18;;
53925;SDS011;39836;52.754;6.866;2022-08-05T06:44:18;12.82;;;6.20;;
53925;SDS011;39836;52.754;6.866;2022-08-05T06:46:44;12.32;;;5.68;;
53925;SDS011;39836;52.754;6.866;2022-08-05T06:49:09;11.73;;;5.88;;
53925;SDS011;39836;52.754;6.866;2022-08-05T06:51:35;11.15;;;6.35;;
53925;SDS011;39836;52.754;6.866;2022-08-05T06:54:02;13.82;;;6.07;;
53925;SDS011;39836;52.754;6.866;2022-08-05T06:56:28;12.95;;;5.78;;
53925;SDS011;39836;52.754;6.866;2022-08-05T06:58:56;9.95;;;5.45;;
53925;SDS011;39836;52.754;6.866;2022-08-05T07:01:21;9.10;;;5.82;;
53925;SDS011;39836;52.754;6.866;2022-08-05T07:03:47;14.35;;;7.88;;
53925;SDS011;39836;52.754;6.866;2022-08-05T07:06:13;12.52;;;5.32;;
53925;SDS011;39836;52.754;6.866;2022-08-05T07:08:39;9.80;;;5.45;;
53925;SDS011;39836;52.754;6.866;2022-08-05T07:11:05;12.15;;;5.70;;
53925;SDS011;39836;52.754;6.866;2022-08-05T07:13:32;11.40;;;5.72;;
53925;SDS011;39836;52.754;6.866;2022-08-05T07:16:17;13.05;;;5.72;;
53925;SDS011;39836;52.754;6.866;2022-08-05T07:19:02;10.82;;;5.18;;
53925;SDS011;39836;52.754;6.866;2022-08-05T07:21:28;16.10;;;5.45;;
53925;SDS011;39836;52.754;6.866;2022-08-05T07:23:55;10.63;;;4.88;;
53925;SDS011;39836;52.754;6.866;2022-08-05T07:26:21;17.25;;;5.60;;
53925;SDS011;39836;52.754;6.866;2022-08-05T07:28:47;11.18;;;5.15;;
53925;SDS011;39836;52.754;6.866;2022-08-05T07:31:17;10.40;;;5.03;;
53925;SDS011;39836;52.754;6.866;2022-08-05T07:33:43;10.13;;;5.20;;
53925;SDS011;39836;52.754;6.866;2022-08-05T07:36:08;12.63;;;5.13;;
53925;SDS011;39836;52.754;6.866;2022-08-05T07:38:35;13.00;;;5.00;;
53925;SDS011;39836;52.754;6.866;2022-08-05T07:41:02;12.57;;;5.15;;
53925;SDS011;39836;52.754;6.866;2022-08-05T07:43:29;12.43;;;4.97;;
53925;SDS011;39836;52.754;6.866;2022-08-05T07:45:54;7.72;;;4.57;;
53925;SDS011;39836;52.754;6.866;2022-08-05T07:48:20;7.22;;;4.10;;
53925;SDS011;39836;52.754;6.866;2022-08-05T07:50:46;8.30;;;4.47;;
53925;SDS011;39836;52.754;6.866;2022-08-05T07:53:11;11.02;;;4.60;;
53925;SDS011;39836;52.754;6.866;2022-08-05T07:55:37;7.43;;;3.83;;
53925;SDS011;39836;52.754;6.866;2022-08-05T07:58:03;9.45;;;3.60;;
53925;SDS011;39836;52.754;6.866;2022-08-05T08:00:29;8.80;;;2.90;;
53925;SDS011;39836;52.754;6.866;2022-08-05T08:02:55;7.13;;;3.25;;
53925;SDS011;39836;52.754;6.866;2022-08-05T08:05:21;6.18;;;3.20;;
53925;SDS011;39836;52.754;6.866;2022-08-05T08:07:46;9.40;;;3.42;;
53925;SDS011;39836;52.754;6.866;2022-08-05T08:10:12;8.02;;;3.30;;
53925;SDS011;39836;52.754;6.866;2022-08-05T08:12:38;7.72;;;2.47;;
53925;SDS011;39836;52.754;6.866;2022-08-05T08:15:04;8.48;;;2.45;;
53925;SDS011;39836;52.754;6.866;2022-08-05T08:17:32;11.30;;;3.28;;
53925;SDS011;39836;52.754;6.866;2022-08-05T08:19:58;7.50;;;2.63;;
53925;SDS011;39836;52.754;6.866;2022-08-05T08:22:27;8.38;;;3.00;;
53925;SDS011;39836;52.754;6.866;2022-08-05T08:24:52;12.30;;;2.70;;
53925;SDS011;39836;52.754;6.866;2022-08-05T08:27:18;7.90;;;2.80;;
53925;SDS011;39836;52.754;6.866;2022-08-05T08:29:44;5.18;;;2.50;;
53925;SDS011;39836;52.754;6.866;2022-08-05T08:32:10;7.15;;;2.63;;
53925;SDS011;39836;52.754;6.866;2022-08-05T08:37:56;6.80;;;2.25;;
53925;SDS011;39836;52.754;6.866;2022-08-05T08:40:34;5.63;;;2.30;;
53925;SDS011;39836;52.754;6.866;2022-08-05T08:43:35;6.00;;;2.15;;
53925;SDS011;39836;52.754;6.866;2022-08-05T08:45:55;5.53;;;2.00;;
53925;SDS011;39836;52.754;6.866;2022-08-05T08:48:23;7.90;;;2.63;;
53925;SDS011;39836;52.754;6.866;2022-08-05T08:50:51;7.80;;;2.00;;
53925;SDS011;39836;52.754;6.866;2022-08-05T08:53:17;8.73;;;1.83;;
53925;SDS011;39836;52.754;6.866;2022-08-05T08:55:43;6.82;;;2.22;;
53925;SDS011;39836;52.754;6.866;2022-08-05T08:58:09;7.68;;;2.33;;
53925;SDS011;39836;52.754;6.866;2022-08-05T09:00:35;7.80;;;1.70;;
53925;SDS011;39836;52.754;6.866;2022-08-05T09:03:04;5.22;;;1.50;;
53925;SDS011;39836;52.754;6.866;2022-08-05T09:05:30;5.28;;;2.10;;
53925;SDS011;39836;52.754;6.866;2022-08-05T09:07:56;3.97;;;1.40;;
53925;SDS011;39836;52.754;6.866;2022-08-05T09:10:22;5.43;;;1.45;;
53925;SDS011;39836;52.754;6.866;2022-08-05T09:12:49;5.03;;;1.27;;
53925;SDS011;39836;52.754;6.866;2022-08-05T09:17:53;5.68;;;1.70;;
53925;SDS011;39836;52.754;6.866;2022-08-05T09:20:19;5.25;;;1.52;;
53925;SDS011;39836;52.754;6.866;2022-08-05T09:23:04;7.13;;;1.80;;
53925;SDS011;39836;52.754;6.866;2022-08-05T09:25:32;4.82;;;1.83;;
53925;SDS011;39836;52.754;6.866;2022-08-05T09:28:07;6.20;;;1.48;;
53925;SDS011;39836;52.754;6.866;2022-08-05T09:30:34;5.45;;;1.50;;
53925;SDS011;39836;52.754;6.866;2022-08-05T09:33:01;11.10;;;1.70;;
53925;SDS011;39836;52.754;6.866;2022-08-05T09:35:27;3.67;;;1.45;;
53925;SDS011;39836;52.754;6.866;2022-08-05T09:37:54;2.13;;;1.10;;
53925;SDS011;39836;52.754;6.866;2022-08-05T09:40:34;7.32;;;1.20;;
53925;SDS011;39836;52.754;6.866;2022-08-05T09:43:03;5.03;;;1.30;;
53925;SDS011;39836;52.754;6.866;2022-08-05T09:45:34;6.07;;;1.30;;
53925;SDS011;39836;52.754;6.866;2022-08-05T09:48:20;6.22;;;1.38;;
53925;SDS011;39836;52.754;6.866;2022-08-05T09:51:01;3.28;;;1.10;;
53925;SDS011;39836;52.754;6.866;2022-08-05T09:53:45;2.50;;;1.00;;
53925;SDS011;39836;52.754;6.866;2022-08-05T09:58:54;4.07;;;1.10;;
53925;SDS011;39836;52.754;6.866;2022-08-05T10:01:25;5.72;;;1.40;;
53925;SDS011;39836;52.754;6.866;2022-08-05T10:06:24;3.60;;;1.55;;
53925;SDS011;39836;52.754;6.866;2022-08-05T10:08:51;3.33;;;1.35;;
53925;SDS011;39836;52.754;6.866;2022-08-05T10:11:17;3.15;;;1.25;;
53925;SDS011;39836;52.754;6.866;2022-08-05T10:13:43;4.03;;;1.33;;
53925;SDS011;39836;52.754;6.866;2022-08-05T10:16:51;6.90;;;1.23;;
53925;SDS011;39836;52.754;6.866;2022-08-05T10:18:59;2.30;;;1.00;;
53925;SDS011;39836;52.754;6.866;2022-08-05T10:21:26;6.72;;;1.13;;
53925;SDS011;39836;52.754;6.866;2022-08-05T10:23:52;2.92;;;0.90;;
53925;SDS011;39836;52.754;6.866;2022-08-05T10:26:19;2.10;;;0.80;;
53925;SDS011;39836;52.754;6.866;2022-08-05T10:28:45;2.55;;;0.77;;
53925;SDS011;39836;52.754;6.866;2022-08-05T10:31:12;3.63;;;0.77;;
53925;SDS011;39836;52.754;6.866;2022-08-05T10:33:39;3.17;;;0.68;;
53925;SDS011;39836;52.754;6.866;2022-08-05T10:36:05;3.05;;;0.80;;
53925;SDS011;39836;52.754;6.866;2022-08-05T10:38:31;3.67;;;0.93;;
53925;SDS011;39836;52.754;6.866;2022-08-05T10:46:12;6.60;;;0.93;;
53925;SDS011;39836;52.754;6.866;2022-08-05T10:48:40;3.38;;;0.80;;
53925;SDS011;39836;52.754;6.866;2022-08-05T10:51:11;5.22;;;0.80;;
53925;SDS011;39836;52.754;6.866;2022-08-05T10:53:43;2.05;;;0.73;;
53925;SDS011;39836;52.754;6.866;2022-08-05T10:56:11;3.47;;;0.70;;
53925;SDS011;39836;52.754;6.866;2022-08-05T10:59:13;2.53;;;0.68;;
53925;SDS011;39836;52.754;6.866;2022-08-05T11:01:40;1.83;;;0.70;;
53925;SDS011;39836;52.754;6.866;2022-08-05T11:04:10;1.30;;;0.60;;
53925;SDS011;39836;52.754;6.866;2022-08-05T11:09:23;3.08;;;0.70;;
53925;SDS011;39836;52.754;6.866;2022-08-05T11:11:50;2.20;;;0.75;;
53925;SDS011;39836;52.754;6.866;2022-08-05T11:14:28;4.32;;;0.85;;
53925;SDS011;39836;52.754;6.866;2022-08-05T11:17:40;1.60;;;0.70;;
53925;SDS011;39836;52.754;6.866;2022-08-05T11:19:52;3.60;;;0.80;;
53925;SDS011;39836;52.754;6.866;2022-08-05T11:27:56;5.25;;;0.63;;
53925;SDS011;39836;52.754;6.866;2022-08-05T11:31:42;0.65;;;0.50;;
53925;SDS011;39836;52.754;6.866;2022-08-05T11:36:10;3.88;;;0.70;;
53925;SDS011;39836;52.754;6.866;2022-08-05T11:41:15;4.85;;;0.70;;
53925;SDS011;39836;52.754;6.866;2022-08-05T11:46:26;3.42;;;0.70;;
53925;SDS011;39836;52.754;6.866;2022-08-05T11:48:53;1.65;;;0.60;;
53925;SDS011;39836;52.754;6.866;2022-08-05T11:51:20;4.22;;;0.60;;
53925;SDS011;39836;52.754;6.866;2022-08-05T11:53:46;1.23;;;0.40;;
53925;SDS011;39836;52.754;6.866;2022-08-05T11:56:12;2.55;;;0.65;;
53925;SDS011;39836;52.754;6.866;2022-08-05T11:58:39;1.80;;;0.60;;
53925;SDS011;39836;52.754;6.866;2022-08-05T12:01:08;2.80;;;0.70;;
53925;SDS011;39836;52.754;6.866;2022-08-05T12:03:45;3.53;;;0.50;;
53925;SDS011;39836;52.754;6.866;2022-08-05T12:06:13;5.88;;;1.08;;
53925;SDS011;39836;52.754;6.866;2022-08-05T12:11:08;1.58;;;0.60;;
53925;SDS011;39836;52.754;6.866;2022-08-05T12:13:35;2.13;;;0.50;;
53925;SDS011;39836;52.754;6.866;2022-08-05T12:16:03;3.03;;;0.50;;
53925;SDS011;39836;52.754;6.866;2022-08-05T12:18:33;1.55;;;0.40;;
53925;SDS011;39836;52.754;6.866;2022-08-05T12:21:12;3.50;;;0.50;;
53925;SDS011;39836;52.754;6.866;2022-08-05T12:23:39;1.20;;;0.40;;
53925;SDS011;39836;52.754;6.866;2022-08-05T12:26:19;0.77;;;0.30;;
53925;SDS011;39836;52.754;6.866;2022-08-05T12:28:45;2.42;;;0.40;;
53925;SDS011;39836;52.754;6.866;2022-08-05T12:31:10;2.72;;;0.50;;
53925;SDS011;39836;52.754;6.866;2022-08-05T12:33:37;0.70;;;0.45;;
53925;SDS011;39836;52.754;6.866;2022-08-05T12:36:04;2.03;;;0.60;;
53925;SDS011;39836;52.754;6.866;2022-08-05T12:38:31;3.67;;;0.40;;
53925;SDS011;39836;52.754;6.866;2022-08-05T12:40:56;5.05;;;0.50;;
53925;SDS011;39836;52.754;6.866;2022-08-05T12:43:23;2.38;;;0.80;;
53925;SDS011;39836;52.754;6.866;2022-08-05T12:45:49;1.58;;;0.70;;
53925;SDS011;39836;52.754;6.866;2022-08-05T12:48:16;4.85;;;0.40;;
53925;SDS011;39836;52.754;6.866;2022-08-05T12:50:42;2.05;;;0.40;;
53925;SDS011;39836;52.754;6.866;2022-08-05T12:53:08;2.78;;;0.40;;
53925;SDS011;39836;52.754;6.866;2022-08-05T12:55:40;2.08;;;0.40;;
53925;SDS011;39836;52.754;6.866;2022-08-05T12:58:06;5.85;;;0.75;;
53925;SDS011;39836;52.754;6.866;2022-08-05T13:00:32;2.15;;;0.40;;
53925;SDS011;39836;52.754;6.866;2022-08-05T13:03:06;3.53;;;0.85;;
53925;SDS011;39836;52.754;6.866;2022-08-05T13:05:33;1.65;;;0.43;;
53925;SDS011;39836;52.754;6.866;2022-08-05T13:07:59;3.10;;;0.60;;
53925;SDS011;39836;52.754;6.866;2022-08-05T13:10:30;2.08;;;0.60;;
53925;SDS011;39836;52.754;6.866;2022-08-05T13:12:57;3.55;;;0.70;;
53925;SDS011;39836;52.754;6.866;2022-08-05T13:15:26;4.13;;;0.57;;
53925;SDS011;39836;52.754;6.866;2022-08-05T13:17:56;4.13;;;0.60;;
53925;SDS011;39836;52.754;6.866;2022-08-05T13:20:21;1.35;;;0.40;;
53925;SDS011;39836;52.754;6.866;2022-08-05T13:25:22;1.65;;;0.50;;
53925;SDS011;39836;52.754;6.866;2022-08-05T13:30:15;5.00;;;0.70;;
53925;SDS011;39836;52.754;6.866;2022-08-05T13:32:42;0.73;;;0.40;;
53925;SDS011;39836;52.754;6.866;2022-08-05T13:35:15;0.65;;;0.40;;
53925;SDS011;39836;52.754;6.866;2022-08-05T13:37:41;2.40;;;0.57;;
53925;SDS011;39836;52.754;6.866;2022-08-05T13:40:08;2.47;;;0.52;;
53925;SDS011;39836;52.754;6.866;2022-08-05T13:42:34;2.60;;;0.50;;
53925;SDS011;39836;52.754;6.866;2022-08-05T13:45:00;1.50;;;0.45;;
53925;SDS011;39836;52.754;6.866;2022-08-05T13:47:27;9.68;;;0.77;;
53925;SDS011;39836;52.754;6.866;2022-08-05T13:49:52;2.00;;;0.63;;
53925;SDS011;39836;52.754;6.866;2022-08-05T13:52:19;1.58;;;0.45;;
53925;SDS011;39836;52.754;6.866;2022-08-05T13:54:46;3.88;;;0.52;;
53925;SDS011;39836;52.754;6.866;2022-08-05T13:57:12;6.22;;;0.70;;
53925;SDS011;39836;52.754;6.866;2022-08-05T13:59:39;2.85;;;0.50;;
53925;SDS011;39836;52.754;6.866;2022-08-05T14:02:06;0.52;;;0.38;;
53925;SDS011;39836;52.754;6.866;2022-08-05T14:04:35;2.20;;;0.50;;
53925;SDS011;39836;52.754;6.866;2022-08-05T14:07:31;1.75;;;0.43;;
53925;SDS011;39836;52.754;6.866;2022-08-05T14:09:58;1.23;;;0.40;;
53925;SDS011;39836;52.754;6.866;2022-08-05T14:12:24;1.98;;;0.50;;
53925;SDS011;39836;52.754;6.866;2022-08-05T14:14:50;3.85;;;0.80;;
53925;SDS011;39836;52.754;6.866;2022-08-05T14:17:16;4.03;;;0.60;;
53925;SDS011;39836;52.754;6.866;2022-08-05T14:19:43;3.22;;;0.55;;
53925;SDS011;39836;52.754;6.866;2022-08-05T14:22:09;4.53;;;0.73;;
53925;SDS011;39836;52.754;6.866;2022-08-05T14:24:36;2.28;;;0.45;;
53925;SDS011;39836;52.754;6.866;2022-08-05T14:27:03;5.20;;;0.73;;
53925;SDS011;39836;52.754;6.866;2022-08-05T14:29:29;0.93;;;0.40;;
53925;SDS011;39836;52.754;6.866;2022-08-05T14:31:55;2.03;;;0.75;;
53925;SDS011;39836;52.754;6.866;2022-08-05T14:34:21;2.13;;;0.40;;
53925;SDS011;39836;52.754;6.866;2022-08-05T14:36:46;3.10;;;0.40;;
53925;SDS011;39836;52.754;6.866;2022-08-05T14:39:12;2.58;;;0.43;;
53925;SDS011;39836;52.754;6.866;2022-08-05T14:41:38;1.23;;;0.70;;
53925;SDS011;39836;52.754;6.866;2022-08-05T14:44:04;2.47;;;0.52;;
53925;SDS011;39836;52.754;6.866;2022-08-05T14:46:31;2.58;;;0.57;;
53925;SDS011;39836;52.754;6.866;2022-08-05T14:48:57;3.00;;;0.55;;
53925;SDS011;39836;52.754;6.866;2022-08-05T14:51:25;2.10;;;0.57;;
53925;SDS011;39836;52.754;6.866;2022-08-05T14:53:50;2.00;;;0.50;;
53925;SDS011;39836;52.754;6.866;2022-08-05T14:56:16;1.73;;;0.52;;
53925;SDS011;39836;52.754;6.866;2022-08-05T14:58:42;3.38;;;0.47;;
53925;SDS011;39836;52.754;6.866;2022-08-05T15:01:07;1.50;;;0.50;;
53925;SDS011;39836;52.754;6.866;2022-08-05T15:03:34;3.75;;;0.50;;
53925;SDS011;39836;52.754;6.866;2022-08-05T15:06:01;1.50;;;0.60;;
53925;SDS011;39836;52.754;6.866;2022-08-05T15:08:27;1.48;;;0.55;;
53925;SDS011;39836;52.754;6.866;2022-08-05T15:10:53;3.33;;;0.70;;
53925;SDS011;39836;52.754;6.866;2022-08-05T15:13:18;1.52;;;0.50;;
53925;SDS011;39836;52.754;6.866;2022-08-05T15:15:44;1.92;;;0.60;;
53925;SDS011;39836;52.754;6.866;2022-08-05T15:18:10;2.33;;;0.40;;
53925;SDS011;39836;52.754;6.866;2022-08-05T15:20:35;1.83;;;0.40;;
53925;SDS011;39836;52.754;6.866;2022-08-05T15:23:05;3.05;;;0.50;;
53925;SDS011;39836;52.754;6.866;2022-08-05T15:25:32;1.65;;;0.60;;
53925;SDS011;39836;52.754;6.866;2022-08-05T15:27:58;1.92;;;0.68;;
53925;SDS011;39836;52.754;6.866;2022-08-05T15:30:24;6.13;;;0.40;;
53925;SDS011;39836;52.754;6.866;2022-08-05T15:32:49;1.85;;;0.50;;